sensor_id;sensor_type;location;lat;lon;timestamp;temperature;humidity
22290;DHT22;11313;50.116;8.424;2023-07-28T00:02:01;24.10;58.80
22290;DHT22;11313;50.116;8.424;2023-07-28T00:04:27;24.10;58.80
22290;DHT22;11313;50.116;8.424;2023-07-28T00:06:52;24.10;58.80
22290;DHT22;11313;50.116;8.424;2023-07-28T00:09:18;24.10;58.80
22290;DHT22;11313;50.116;8.424;2023-07-28T00:11:43;24.10;58.80
22290;DHT22;11313;50.116;8.424;2023-07-28T00:14:09;24.10;58.80
22290;DHT22;11313;50.116;8.424;2023-07-28T00:16:34;24.10;58.80
22290;DHT22;11313;50.116;8.424;2023-07-28T00:19:00;24.10;58.80
22290;DHT22;11313;50.116;8.424;2023-07-28T00:21:26;24.10;58.70
22290;DHT22;11313;50.116;8.424;2023-07-28T00:23:51;24.10;58.80
22290;DHT22;11313;50.116;8.424;2023-07-28T00:26:17;24.10;58.80
22290;DHT22;11313;50.116;8.424;2023-07-28T00:28:42;24.10;58.80
22290;DHT22;11313;50.116;8.424;2023-07-28T00:31:08;24.10;58.80
22290;DHT22;11313;50.116;8.424;2023-07-28T00:33:33;24.10;58.80
22290;DHT22;11313;50.116;8.424;2023-07-28T00:35:59;24.00;58.70
22290;DHT22;11313;50.116;8.424;2023-07-28T00:38:24;24.10;58.80
22290;DHT22;11313;50.116;8.424;2023-07-28T00:40:50;24.10;58.80
22290;DHT22;11313;50.116;8.424;2023-07-28T00:43:16;24.10;58.80
22290;DHT22;11313;50.116;8.424;2023-07-28T00:45:41;24.10;58.80
22290;DHT22;11313;50.116;8.424;2023-07-28T00:48:11;24.10;58.80
22290;DHT22;11313;50.116;8.424;2023-07-28T00:50:37;24.10;58.90
22290;DHT22;11313;50.116;8.424;2023-07-28T00:53:03;24.00;58.80
22290;DHT22;11313;50.116;8.424;2023-07-28T00:55:28;24.10;58.80
22290;DHT22;11313;50.116;8.424;2023-07-28T00:57:54;24.10;58.80
22290;DHT22;11313;50.116;8.424;2023-07-28T01:00:19;24.10;58.80
22290;DHT22;11313;50.116;8.424;2023-07-28T01:02:45;24.10;58.80
22290;DHT22;11313;50.116;8.424;2023-07-28T01:05:11;24.10;58.80
22290;DHT22;11313;50.116;8.424;2023-07-28T01:07:53;24.10;58.80
22290;DHT22;11313;50.116;8.424;2023-07-28T01:10:26;24.10;58.80
22290;DHT22;11313;50.116;8.424;2023-07-28T01:12:53;24.10;58.90
22290;DHT22;11313;50.116;8.424;2023-07-28T01:15:19;24.10;58.80
22290;DHT22;11313;50.116;8.424;2023-07-28T01:17:44;24.10;58.80
22290;DHT22;11313;50.116;8.424;2023-07-28T01:20:10;24.10;58.80
22290;DHT22;11313;50.116;8.424;2023-07-28T01:28:01;24.10;58.80
22290;DHT22;11313;50.116;8.424;2023-07-28T01:30:27;24.10;58.90
22290;DHT22;11313;50.116;8.424;2023-07-28T01:32:57;24.10;58.80
22290;DHT22;11313;50.116;8.424;2023-07-28T01:35:23;24.10;58.80
22290;DHT22;11313;50.116;8.424;2023-07-28T01:37:48;24.10;58.70
22290;DHT22;11313;50.116;8.424;2023-07-28T01:40:17;24.10;58.80
22290;DHT22;11313;50.116;8.424;2023-07-28T01:42:43;24.10;58.80
22290;DHT22;11313;50.116;8.424;2023-07-28T01:45:09;24.10;58.80
22290;DHT22;11313;50.116;8.424;2023-07-28T01:47:34;24.10;58.80
22290;DHT22;11313;50.116;8.424;2023-07-28T01:50:00;24.10;58.80
22290;DHT22;11313;50.116;8.424;2023-07-28T01:52:25;24.10;58.80
22290;DHT22;11313;50.116;8.424;2023-07-28T01:54:51;24.10;58.80
22290;DHT22;11313;50.116;8.424;2023-07-28T01:57:17;24.10;58.80
22290;DHT22;11313;50.116;8.424;2023-07-28T01:59:42;24.10;59.50
22290;DHT22;11313;50.116;8.424;2023-07-28T02:02:08;24.10;58.80
22290;DHT22;11313;50.116;8.424;2023-07-28T02:04:33;24.00;58.80
22290;DHT22;11313;50.116;8.424;2023-07-28T02:06:59;24.10;58.80
22290;DHT22;11313;50.116;8.424;2023-07-28T02:09:24;24.10;58.80
22290;DHT22;11313;50.116;8.424;2023-07-28T02:11:50;24.10;58.80
22290;DHT22;11313;50.116;8.424;2023-07-28T02:14:15;24.10;58.80
22290;DHT22;11313;50.116;8.424;2023-07-28T02:16:40;24.10;58.80
22290;DHT22;11313;50.116;8.424;2023-07-28T02:19:06;24.10;58.80
22290;DHT22;11313;50.116;8.424;2023-07-28T02:21:33;24.10;58.80
22290;DHT22;11313;50.116;8.424;2023-07-28T02:23:58;24.10;58.80
22290;DHT22;11313;50.116;8.424;2023-07-28T02:26:24;24.10;58.80
22290;DHT22;11313;50.116;8.424;2023-07-28T02:28:49;24.10;58.80
22290;DHT22;11313;50.116;8.424;2023-07-28T02:31:15;24.10;58.80
22290;DHT22;11313;50.116;8.424;2023-07-28T02:33:40;24.10;58.80
22290;DHT22;11313;50.116;8.424;2023-07-28T02:36:06;24.10;58.70
22290;DHT22;11313;50.116;8.424;2023-07-28T02:38:31;24.10;58.80
22290;DHT22;11313;50.116;8.424;2023-07-28T02:40:57;24.10;58.80
22290;DHT22;11313;50.116;8.424;2023-07-28T02:43:22;24.10;58.80
22290;DHT22;11313;50.116;8.424;2023-07-28T02:45:55;24.10;58.80
22290;DHT22;11313;50.116;8.424;2023-07-28T02:48:21;24.00;58.70
22290;DHT22;11313;50.116;8.424;2023-07-28T02:51:03;24.10;58.70
22290;DHT22;11313;50.116;8.424;2023-07-28T02:53:29;24.10;58.80
22290;DHT22;11313;50.116;8.424;2023-07-28T02:55:56;24.10;58.80
22290;DHT22;11313;50.116;8.424;2023-07-28T02:58:21;24.10;58.80
22290;DHT22;11313;50.116;8.424;2023-07-28T03:00:47;24.10;58.80
22290;DHT22;11313;50.116;8.424;2023-07-28T03:03:12;24.00;58.70
22290;DHT22;11313;50.116;8.424;2023-07-28T03:05:39;24.10;58.80
22290;DHT22;11313;50.116;8.424;2023-07-28T03:08:05;24.00;58.70
22290;DHT22;11313;50.116;8.424;2023-07-28T03:10:30;24.10;58.70
22290;DHT22;11313;50.116;8.424;2023-07-28T03:12:56;24.10;58.70
22290;DHT22;11313;50.116;8.424;2023-07-28T03:15:22;24.10;58.80
22290;DHT22;11313;50.116;8.424;2023-07-28T03:17:48;24.10;58.70
22290;DHT22;11313;50.116;8.424;2023-07-28T03:20:14;24.10;58.70
22290;DHT22;11313;50.116;8.424;2023-07-28T03:22:39;24.10;58.80
22290;DHT22;11313;50.116;8.424;2023-07-28T03:25:05;24.10;58.70
22290;DHT22;11313;50.116;8.424;2023-07-28T03:27:30;24.10;58.80
22290;DHT22;11313;50.116;8.424;2023-07-28T03:29:56;24.00;58.80
22290;DHT22;11313;50.116;8.424;2023-07-28T03:32:21;24.10;58.70
22290;DHT22;11313;50.116;8.424;2023-07-28T03:34:47;24.00;58.70
22290;DHT22;11313;50.116;8.424;2023-07-28T03:37:12;24.10;58.70
22290;DHT22;11313;50.116;8.424;2023-07-28T03:39:38;24.10;58.70
22290;DHT22;11313;50.116;8.424;2023-07-28T03:42:03;24.10;58.70
22290;DHT22;11313;50.116;8.424;2023-07-28T03:44:29;24.10;58.80
22290;DHT22;11313;50.116;8.424;2023-07-28T03:46:55;24.10;58.80
22290;DHT22;11313;50.116;8.424;2023-07-28T03:49:20;24.10;58.80
22290;DHT22;11313;50.116;8.424;2023-07-28T03:51:46;24.10;58.70
22290;DHT22;11313;50.116;8.424;2023-07-28T03:54:11;24.00;58.60
22290;DHT22;11313;50.116;8.424;2023-07-28T03:56:37;24.10;58.80
22290;DHT22;11313;50.116;8.424;2023-07-28T03:59:02;24.10;58.70
22290;DHT22;11313;50.116;8.424;2023-07-28T04:01:28;24.10;58.80
22290;DHT22;11313;50.116;8.424;2023-07-28T04:03:53;24.10;58.70
22290;DHT22;11313;50.116;8.424;2023-07-28T04:06:19;24.10;58.80
22290;DHT22;11313;50.116;8.424;2023-07-28T04:08:44;24.10;58.70
22290;DHT22;11313;50.116;8.424;2023-07-28T04:11:10;24.10;58.80
22290;DHT22;11313;50.116;8.424;2023-07-28T04:13:35;24.00;58.70
22290;DHT22;11313;50.116;8.424;2023-07-28T04:16:01;24.00;58.70
22290;DHT22;11313;50.116;8.424;2023-07-28T04:18:27;24.10;58.70
22290;DHT22;11313;50.116;8.424;2023-07-28T04:20:53;24.10;58.60
22290;DHT22;11313;50.116;8.424;2023-07-28T04:23:18;24.10;58.70
22290;DHT22;11313;50.116;8.424;2023-07-28T04:25:44;24.10;58.70
22290;DHT22;11313;50.116;8.424;2023-07-28T04:28:09;24.10;58.60
22290;DHT22;11313;50.116;8.424;2023-07-28T04:30:35;24.00;58.60
22290;DHT22;11313;50.116;8.424;2023-07-28T04:33:00;24.10;58.60
22290;DHT22;11313;50.116;8.424;2023-07-28T04:35:26;24.10;58.70
22290;DHT22;11313;50.116;8.424;2023-07-28T04:37:52;24.00;58.60
22290;DHT22;11313;50.116;8.424;2023-07-28T04:40:18;24.10;58.70
22290;DHT22;11313;50.116;8.424;2023-07-28T04:42:44;24.10;58.60
22290;DHT22;11313;50.116;8.424;2023-07-28T04:45:10;24.00;58.60
22290;DHT22;11313;50.116;8.424;2023-07-28T04:47:35;24.00;58.70
22290;DHT22;11313;50.116;8.424;2023-07-28T04:50:01;24.10;58.70
22290;DHT22;11313;50.116;8.424;2023-07-28T04:52:26;24.00;58.60
22290;DHT22;11313;50.116;8.424;2023-07-28T04:54:52;24.00;58.60
22290;DHT22;11313;50.116;8.424;2023-07-28T04:57:18;24.10;58.60
22290;DHT22;11313;50.116;8.424;2023-07-28T04:59:44;24.10;58.60
22290;DHT22;11313;50.116;8.424;2023-07-28T05:02:10;24.10;59.30
22290;DHT22;11313;50.116;8.424;2023-07-28T05:04:36;24.10;58.80
22290;DHT22;11313;50.116;8.424;2023-07-28T05:07:02;24.00;58.80
22290;DHT22;11313;50.116;8.424;2023-07-28T05:09:28;24.00;58.80
22290;DHT22;11313;50.116;8.424;2023-07-28T05:11:54;24.00;58.80
22290;DHT22;11313;50.116;8.424;2023-07-28T05:14:21;24.00;58.80
22290;DHT22;11313;50.116;8.424;2023-07-28T05:16:46;24.10;58.80
22290;DHT22;11313;50.116;8.424;2023-07-28T05:19:12;24.10;58.80
22290;DHT22;11313;50.116;8.424;2023-07-28T05:21:38;24.10;58.80
22290;DHT22;11313;50.116;8.424;2023-07-28T05:24:04;24.10;58.80
22290;DHT22;11313;50.116;8.424;2023-07-28T05:26:29;24.00;58.80
22290;DHT22;11313;50.116;8.424;2023-07-28T05:28:55;24.00;58.70
22290;DHT22;11313;50.116;8.424;2023-07-28T05:31:21;24.10;58.70
22290;DHT22;11313;50.116;8.424;2023-07-28T05:33:46;24.10;58.60
22290;DHT22;11313;50.116;8.424;2023-07-28T05:36:12;24.10;58.60
22290;DHT22;11313;50.116;8.424;2023-07-28T05:38:37;24.10;58.60
22290;DHT22;11313;50.116;8.424;2023-07-28T05:41:04;24.00;58.60
22290;DHT22;11313;50.116;8.424;2023-07-28T05:43:34;24.10;58.60
22290;DHT22;11313;50.116;8.424;2023-07-28T05:46:00;24.10;58.60
22290;DHT22;11313;50.116;8.424;2023-07-28T05:48:26;24.00;58.60
22290;DHT22;11313;50.116;8.424;2023-07-28T05:50:52;24.10;58.60
22290;DHT22;11313;50.116;8.424;2023-07-28T05:53:24;24.10;58.60
22290;DHT22;11313;50.116;8.424;2023-07-28T05:55:49;24.10;59.20
22290;DHT22;11313;50.116;8.424;2023-07-28T05:58:15;24.10;58.50
22290;DHT22;11313;50.116;8.424;2023-07-28T06:00:41;24.00;58.50
22290;DHT22;11313;50.116;8.424;2023-07-28T06:03:09;24.10;58.50
22290;DHT22;11313;50.116;8.424;2023-07-28T06:05:35;24.10;58.50
22290;DHT22;11313;50.116;8.424;2023-07-28T06:08:00;24.10;58.60
22290;DHT22;11313;50.116;8.424;2023-07-28T06:10:26;24.10;58.40
22290;DHT22;11313;50.116;8.424;2023-07-28T06:12:51;24.10;58.50
22290;DHT22;11313;50.116;8.424;2023-07-28T06:15:17;24.10;58.40
22290;DHT22;11313;50.116;8.424;2023-07-28T06:17:42;24.10;58.40
22290;DHT22;11313;50.116;8.424;2023-07-28T06:20:09;24.10;58.30
22290;DHT22;11313;50.116;8.424;2023-07-28T06:22:35;24.10;58.30
22290;DHT22;11313;50.116;8.424;2023-07-28T06:25:01;24.10;58.30
22290;DHT22;11313;50.116;8.424;2023-07-28T06:27:26;24.10;58.30
22290;DHT22;11313;50.116;8.424;2023-07-28T06:29:52;24.00;58.50
22290;DHT22;11313;50.116;8.424;2023-07-28T06:32:19;24.20;58.50
22290;DHT22;11313;50.116;8.424;2023-07-28T06:34:48;24.10;58.60
22290;DHT22;11313;50.116;8.424;2023-07-28T06:37:14;24.10;58.50
22290;DHT22;11313;50.116;8.424;2023-07-28T06:39:39;24.10;58.50
22290;DHT22;11313;50.116;8.424;2023-07-28T06:42:05;24.10;58.50
22290;DHT22;11313;50.116;8.424;2023-07-28T06:44:31;24.10;58.60
22290;DHT22;11313;50.116;8.424;2023-07-28T06:46:56;24.10;59.00
22290;DHT22;11313;50.116;8.424;2023-07-28T06:49:22;24.10;58.90
22290;DHT22;11313;50.116;8.424;2023-07-28T06:51:48;24.10;59.00
22290;DHT22;11313;50.116;8.424;2023-07-28T06:54:14;24.10;59.00
22290;DHT22;11313;50.116;8.424;2023-07-28T06:56:40;24.20;59.30
22290;DHT22;11313;50.116;8.424;2023-07-28T06:59:07;24.10;59.10
22290;DHT22;11313;50.116;8.424;2023-07-28T07:01:33;24.10;59.00
22290;DHT22;11313;50.116;8.424;2023-07-28T07:03:59;24.20;59.00
22290;DHT22;11313;50.116;8.424;2023-07-28T07:06:24;24.10;59.10
22290;DHT22;11313;50.116;8.424;2023-07-28T07:08:50;24.10;59.10
22290;DHT22;11313;50.116;8.424;2023-07-28T07:11:16;24.10;59.10
22290;DHT22;11313;50.116;8.424;2023-07-28T07:13:41;24.10;59.10
22290;DHT22;11313;50.116;8.424;2023-07-28T07:16:18;24.10;59.00
22290;DHT22;11313;50.116;8.424;2023-07-28T07:18:44;24.10;58.80
22290;DHT22;11313;50.116;8.424;2023-07-28T07:21:10;24.10;58.70
22290;DHT22;11313;50.116;8.424;2023-07-28T07:23:36;24.10;58.60
22290;DHT22;11313;50.116;8.424;2023-07-28T07:26:04;24.20;58.60
22290;DHT22;11313;50.116;8.424;2023-07-28T07:28:30;24.10;58.50
22290;DHT22;11313;50.116;8.424;2023-07-28T07:30:58;24.20;58.50
22290;DHT22;11313;50.116;8.424;2023-07-28T07:33:26;24.10;58.40
22290;DHT22;11313;50.116;8.424;2023-07-28T07:35:52;24.10;58.40
22290;DHT22;11313;50.116;8.424;2023-07-28T07:38:18;24.10;58.40
22290;DHT22;11313;50.116;8.424;2023-07-28T07:40:47;24.10;58.30
22290;DHT22;11313;50.116;8.424;2023-07-28T07:43:13;24.20;58.30
22290;DHT22;11313;50.116;8.424;2023-07-28T07:45:44;24.10;58.20
22290;DHT22;11313;50.116;8.424;2023-07-28T07:48:11;24.10;58.20
22290;DHT22;11313;50.116;8.424;2023-07-28T07:50:37;24.10;58.20
22290;DHT22;11313;50.116;8.424;2023-07-28T07:53:02;24.10;58.30
22290;DHT22;11313;50.116;8.424;2023-07-28T07:55:31;24.10;58.20
22290;DHT22;11313;50.116;8.424;2023-07-28T07:57:59;24.10;58.20
22290;DHT22;11313;50.116;8.424;2023-07-28T08:00:25;24.20;58.30
22290;DHT22;11313;50.116;8.424;2023-07-28T08:02:51;24.10;58.10
22290;DHT22;11313;50.116;8.424;2023-07-28T08:05:19;24.20;58.10
22290;DHT22;11313;50.116;8.424;2023-07-28T08:07:47;24.10;58.10
22290;DHT22;11313;50.116;8.424;2023-07-28T08:10:13;24.10;58.10
22290;DHT22;11313;50.116;8.424;2023-07-28T08:12:38;24.10;58.10
22290;DHT22;11313;50.116;8.424;2023-07-28T08:15:09;24.20;58.10
22290;DHT22;11313;50.116;8.424;2023-07-28T08:17:42;24.20;58.10
22290;DHT22;11313;50.116;8.424;2023-07-28T08:20:10;24.20;58.00
22290;DHT22;11313;50.116;8.424;2023-07-28T08:22:38;24.10;58.00
22290;DHT22;11313;50.116;8.424;2023-07-28T08:25:14;24.20;58.00
22290;DHT22;11313;50.116;8.424;2023-07-28T08:27:50;24.20;58.00
22290;DHT22;11313;50.116;8.424;2023-07-28T08:30:15;24.20;58.00
22290;DHT22;11313;50.116;8.424;2023-07-28T08:32:43;24.20;58.00
22290;DHT22;11313;50.116;8.424;2023-07-28T08:35:09;24.20;58.00
22290;DHT22;11313;50.116;8.424;2023-07-28T08:37:34;24.20;57.90
22290;DHT22;11313;50.116;8.424;2023-07-28T08:40:03;24.20;57.90
22290;DHT22;11313;50.116;8.424;2023-07-28T08:42:39;24.20;57.90
22290;DHT22;11313;50.116;8.424;2023-07-28T08:45:07;24.10;57.80
22290;DHT22;11313;50.116;8.424;2023-07-28T08:47:36;24.20;57.90
22290;DHT22;11313;50.116;8.424;2023-07-28T08:50:02;24.20;57.90
22290;DHT22;11313;50.116;8.424;2023-07-28T08:52:28;24.20;57.90
22290;DHT22;11313;50.116;8.424;2023-07-28T08:54:54;24.20;57.80
22290;DHT22;11313;50.116;8.424;2023-07-28T08:57:21;24.20;57.70
22290;DHT22;11313;50.116;8.424;2023-07-28T08:59:48;24.20;57.80
22290;DHT22;11313;50.116;8.424;2023-07-28T09:02:16;24.20;57.80
22290;DHT22;11313;50.116;8.424;2023-07-28T09:04:43;24.20;57.80
22290;DHT22;11313;50.116;8.424;2023-07-28T09:07:10;24.20;57.80
22290;DHT22;11313;50.116;8.424;2023-07-28T09:09:36;24.20;57.70
22290;DHT22;11313;50.116;8.424;2023-07-28T09:12:03;24.20;57.70
22290;DHT22;11313;50.116;8.424;2023-07-28T09:14:35;24.20;57.70
22290;DHT22;11313;50.116;8.424;2023-07-28T09:17:10;24.20;57.60
22290;DHT22;11313;50.116;8.424;2023-07-28T09:19:52;24.20;57.60
22290;DHT22;11313;50.116;8.424;2023-07-28T09:22:18;24.20;57.70
22290;DHT22;11313;50.116;8.424;2023-07-28T09:24:51;24.10;57.60
22290;DHT22;11313;50.116;8.424;2023-07-28T09:27:26;24.20;57.60
22290;DHT22;11313;50.116;8.424;2023-07-28T09:29:55;24.20;57.60
22290;DHT22;11313;50.116;8.424;2023-07-28T09:32:28;24.20;57.70
22290;DHT22;11313;50.116;8.424;2023-07-28T09:35:08;24.20;57.60
22290;DHT22;11313;50.116;8.424;2023-07-28T09:37:37;24.20;57.50
22290;DHT22;11313;50.116;8.424;2023-07-28T09:40:12;24.20;57.50
22290;DHT22;11313;50.116;8.424;2023-07-28T09:42:42;24.20;57.40
22290;DHT22;11313;50.116;8.424;2023-07-28T09:45:17;24.20;57.60
22290;DHT22;11313;50.116;8.424;2023-07-28T09:47:47;24.20;57.50
22290;DHT22;11313;50.116;8.424;2023-07-28T09:50:18;24.20;57.50
22290;DHT22;11313;50.116;8.424;2023-07-28T09:52:53;24.20;57.40
22290;DHT22;11313;50.116;8.424;2023-07-28T09:55:22;24.10;57.40
22290;DHT22;11313;50.116;8.424;2023-07-28T09:57:51;24.20;57.40
22290;DHT22;11313;50.116;8.424;2023-07-28T10:00:18;24.20;57.30
22290;DHT22;11313;50.116;8.424;2023-07-28T10:02:46;24.20;57.40
22290;DHT22;11313;50.116;8.424;2023-07-28T10:05:12;24.30;57.40
22290;DHT22;11313;50.116;8.424;2023-07-28T10:07:41;24.20;57.30
22290;DHT22;11313;50.116;8.424;2023-07-28T10:10:09;24.20;57.40
22290;DHT22;11313;50.116;8.424;2023-07-28T10:12:42;24.20;57.30
22290;DHT22;11313;50.116;8.424;2023-07-28T10:15:18;24.20;57.30
22290;DHT22;11313;50.116;8.424;2023-07-28T10:17:51;24.20;57.30
22290;DHT22;11313;50.116;8.424;2023-07-28T10:23:05;24.30;57.30
22290;DHT22;11313;50.116;8.424;2023-07-28T10:25:35;24.30;57.40
22290;DHT22;11313;50.116;8.424;2023-07-28T10:28:02;24.20;57.30
22290;DHT22;11313;50.116;8.424;2023-07-28T10:30:53;24.30;57.30
22290;DHT22;11313;50.116;8.424;2023-07-28T10:33:35;24.30;57.30
22290;DHT22;11313;50.116;8.424;2023-07-28T10:41:25;24.30;57.30
22290;DHT22;11313;50.116;8.424;2023-07-28T10:43:52;24.30;57.30
22290;DHT22;11313;50.116;8.424;2023-07-28T10:46:20;24.30;57.30
22290;DHT22;11313;50.116;8.424;2023-07-28T10:48:48;24.30;57.30
22290;DHT22;11313;50.116;8.424;2023-07-28T10:51:25;24.40;57.30
22290;DHT22;11313;50.116;8.424;2023-07-28T10:53:57;24.30;57.30
22290;DHT22;11313;50.116;8.424;2023-07-28T10:56:24;24.30;57.30
22290;DHT22;11313;50.116;8.424;2023-07-28T10:59:01;24.30;57.30
22290;DHT22;11313;50.116;8.424;2023-07-28T11:01:38;24.30;57.20
22290;DHT22;11313;50.116;8.424;2023-07-28T11:04:14;24.30;57.20
22290;DHT22;11313;50.116;8.424;2023-07-28T11:06:41;24.30;57.30
22290;DHT22;11313;50.116;8.424;2023-07-28T11:09:08;24.30;57.30
22290;DHT22;11313;50.116;8.424;2023-07-28T11:11:35;24.40;57.30
22290;DHT22;11313;50.116;8.424;2023-07-28T11:14:02;24.30;57.20
22290;DHT22;11313;50.116;8.424;2023-07-28T11:16:28;24.30;57.20
22290;DHT22;11313;50.116;8.424;2023-07-28T11:19:01;24.30;57.20
22290;DHT22;11313;50.116;8.424;2023-07-28T11:21:28;24.30;57.20
22290;DHT22;11313;50.116;8.424;2023-07-28T11:24:00;24.30;57.10
22290;DHT22;11313;50.116;8.424;2023-07-28T11:26:31;24.40;57.20
22290;DHT22;11313;50.116;8.424;2023-07-28T11:28:59;24.30;57.10
22290;DHT22;11313;50.116;8.424;2023-07-28T11:31:25;24.40;57.20
22290;DHT22;11313;50.116;8.424;2023-07-28T11:33:51;24.30;57.10
22290;DHT22;11313;50.116;8.424;2023-07-28T11:36:28;24.40;57.20
22290;DHT22;11313;50.116;8.424;2023-07-28T11:38:57;24.40;57.20
22290;DHT22;11313;50.116;8.424;2023-07-28T11:41:23;24.40;57.20
22290;DHT22;11313;50.116;8.424;2023-07-28T11:43:50;24.30;57.10
22290;DHT22;11313;50.116;8.424;2023-07-28T11:46:37;24.40;57.10
22290;DHT22;11313;50.116;8.424;2023-07-28T11:49:14;24.40;57.10
22290;DHT22;11313;50.116;8.424;2023-07-28T11:51:46;24.40;57.10
22290;DHT22;11313;50.116;8.424;2023-07-28T11:54:17;24.40;57.10
22290;DHT22;11313;50.116;8.424;2023-07-28T11:56:46;24.30;57.10
22290;DHT22;11313;50.116;8.424;2023-07-28T11:59:14;24.40;57.10
22290;DHT22;11313;50.116;8.424;2023-07-28T12:02:01;24.40;57.10
22290;DHT22;11313;50.116;8.424;2023-07-28T12:04:28;24.40;57.00
22290;DHT22;11313;50.116;8.424;2023-07-28T12:07:06;24.40;57.10
22290;DHT22;11313;50.116;8.424;2023-07-28T12:09:33;24.40;57.10
22290;DHT22;11313;50.116;8.424;2023-07-28T12:11:59;24.30;57.00
22290;DHT22;11313;50.116;8.424;2023-07-28T12:14:34;24.50;57.20
22290;DHT22;11313;50.116;8.424;2023-07-28T12:17:00;24.40;57.10
22290;DHT22;11313;50.116;8.424;2023-07-28T12:19:28;24.30;57.00
22290;DHT22;11313;50.116;8.424;2023-07-28T12:21:54;24.40;57.10
22290;DHT22;11313;50.116;8.424;2023-07-28T12:24:20;24.40;57.00
22290;DHT22;11313;50.116;8.424;2023-07-28T12:26:46;24.40;57.00
22290;DHT22;11313;50.116;8.424;2023-07-28T12:29:13;24.40;57.10
22290;DHT22;11313;50.116;8.424;2023-07-28T12:31:39;24.40;57.10
22290;DHT22;11313;50.116;8.424;2023-07-28T12:34:06;24.40;57.00
22290;DHT22;11313;50.116;8.424;2023-07-28T12:36:31;24.40;57.00
22290;DHT22;11313;50.116;8.424;2023-07-28T12:38:57;24.40;57.00
22290;DHT22;11313;50.116;8.424;2023-07-28T12:41:23;24.40;57.00
22290;DHT22;11313;50.116;8.424;2023-07-28T12:43:49;24.40;57.00
22290;DHT22;11313;50.116;8.424;2023-07-28T12:46:15;24.40;57.00
22290;DHT22;11313;50.116;8.424;2023-07-28T12:48:43;24.50;57.10
22290;DHT22;11313;50.116;8.424;2023-07-28T12:51:09;24.40;57.10
22290;DHT22;11313;50.116;8.424;2023-07-28T12:53:35;24.40;57.00
22290;DHT22;11313;50.116;8.424;2023-07-28T12:56:01;24.40;57.00
22290;DHT22;11313;50.116;8.424;2023-07-28T12:58:27;24.40;57.00
22290;DHT22;11313;50.116;8.424;2023-07-28T13:00:53;24.40;57.00
22290;DHT22;11313;50.116;8.424;2023-07-28T13:03:19;24.40;57.00
22290;DHT22;11313;50.116;8.424;2023-07-28T13:05:45;24.40;57.00
22290;DHT22;11313;50.116;8.424;2023-07-28T13:08:13;24.40;57.00
22290;DHT22;11313;50.116;8.424;2023-07-28T13:10:39;24.40;57.00
22290;DHT22;11313;50.116;8.424;2023-07-28T13:13:04;24.40;57.00
22290;DHT22;11313;50.116;8.424;2023-07-28T13:15:30;24.40;57.00
22290;DHT22;11313;50.116;8.424;2023-07-28T13:17:55;24.40;57.00
22290;DHT22;11313;50.116;8.424;2023-07-28T13:20:21;24.20;56.90
22290;DHT22;11313;50.116;8.424;2023-07-28T13:22:46;24.40;56.90
22290;DHT22;11313;50.116;8.424;2023-07-28T13:25:15;24.40;57.00
22290;DHT22;11313;50.116;8.424;2023-07-28T13:27:42;24.40;57.00
22290;DHT22;11313;50.116;8.424;2023-07-28T13:30:16;24.40;57.00
22290;DHT22;11313;50.116;8.424;2023-07-28T13:32:43;24.50;57.00
22290;DHT22;11313;50.116;8.424;2023-07-28T13:35:09;24.50;57.00
22290;DHT22;11313;50.116;8.424;2023-07-28T13:37:35;24.50;57.00
22290;DHT22;11313;50.116;8.424;2023-07-28T13:40:02;24.50;57.00
22290;DHT22;11313;50.116;8.424;2023-07-28T13:42:28;24.50;57.00
22290;DHT22;11313;50.116;8.424;2023-07-28T13:44:54;24.50;57.00
22290;DHT22;11313;50.116;8.424;2023-07-28T13:47:23;24.40;57.00
22290;DHT22;11313;50.116;8.424;2023-07-28T13:49:48;24.50;57.00
22290;DHT22;11313;50.116;8.424;2023-07-28T13:52:14;24.50;57.00
22290;DHT22;11313;50.116;8.424;2023-07-28T13:54:45;24.50;57.60
22290;DHT22;11313;50.116;8.424;2023-07-28T13:57:11;24.50;57.00
22290;DHT22;11313;50.116;8.424;2023-07-28T13:59:40;24.50;57.00
22290;DHT22;11313;50.116;8.424;2023-07-28T14:02:06;24.50;57.00
22290;DHT22;11313;50.116;8.424;2023-07-28T14:04:36;24.50;57.00
22290;DHT22;11313;50.116;8.424;2023-07-28T14:07:02;24.50;57.00
22290;DHT22;11313;50.116;8.424;2023-07-28T14:09:29;24.50;57.00
22290;DHT22;11313;50.116;8.424;2023-07-28T14:11:54;24.50;57.00
22290;DHT22;11313;50.116;8.424;2023-07-28T14:14:22;24.50;57.00
22290;DHT22;11313;50.116;8.424;2023-07-28T14:16:50;24.50;57.00
22290;DHT22;11313;50.116;8.424;2023-07-28T14:19:19;24.50;57.00
22290;DHT22;11313;50.116;8.424;2023-07-28T14:21:45;24.50;57.00
22290;DHT22;11313;50.116;8.424;2023-07-28T14:24:11;24.50;57.00
22290;DHT22;11313;50.116;8.424;2023-07-28T14:26:37;24.50;57.00
22290;DHT22;11313;50.116;8.424;2023-07-28T14:29:03;24.50;57.00
22290;DHT22;11313;50.116;8.424;2023-07-28T14:31:28;24.50;56.90
22290;DHT22;11313;50.116;8.424;2023-07-28T14:33:54;24.50;56.90
22290;DHT22;11313;50.116;8.424;2023-07-28T14:36:20;24.50;57.00
22290;DHT22;11313;50.116;8.424;2023-07-28T14:38:48;24.50;56.90
22290;DHT22;11313;50.116;8.424;2023-07-28T14:41:15;24.50;57.00
22290;DHT22;11313;50.116;8.424;2023-07-28T14:43:41;24.50;56.90
22290;DHT22;11313;50.116;8.424;2023-07-28T14:46:07;24.50;57.00
22290;DHT22;11313;50.116;8.424;2023-07-28T14:48:32;24.50;56.90
22290;DHT22;11313;50.116;8.424;2023-07-28T14:51:00;24.60;57.00
22290;DHT22;11313;50.116;8.424;2023-07-28T14:53:35;24.50;56.90
22290;DHT22;11313;50.116;8.424;2023-07-28T14:56:03;24.50;57.00
22290;DHT22;11313;50.116;8.424;2023-07-28T14:58:29;24.50;57.00
22290;DHT22;11313;50.116;8.424;2023-07-28T15:00:56;24.50;56.90
22290;DHT22;11313;50.116;8.424;2023-07-28T15:03:25;24.50;56.90
22290;DHT22;11313;50.116;8.424;2023-07-28T15:05:51;24.50;56.90
22290;DHT22;11313;50.116;8.424;2023-07-28T15:08:17;24.50;57.00
22290;DHT22;11313;50.116;8.424;2023-07-28T15:10:42;24.50;56.90
22290;DHT22;11313;50.116;8.424;2023-07-28T15:13:08;24.50;56.90
22290;DHT22;11313;50.116;8.424;2023-07-28T15:15:34;24.50;56.90
22290;DHT22;11313;50.116;8.424;2023-07-28T15:18:03;24.60;57.00
22290;DHT22;11313;50.116;8.424;2023-07-28T15:20:28;24.50;56.90
22290;DHT22;11313;50.116;8.424;2023-07-28T15:22:54;24.50;56.90
22290;DHT22;11313;50.116;8.424;2023-07-28T15:25:20;24.50;56.90
22290;DHT22;11313;50.116;8.424;2023-07-28T15:27:47;24.50;56.90
22290;DHT22;11313;50.116;8.424;2023-07-28T15:30:12;24.50;56.90
22290;DHT22;11313;50.116;8.424;2023-07-28T15:37:39;24.50;56.90
22290;DHT22;11313;50.116;8.424;2023-07-28T15:40:05;24.50;56.90
22290;DHT22;11313;50.116;8.424;2023-07-28T15:42:31;24.50;56.90
22290;DHT22;11313;50.116;8.424;2023-07-28T15:44:57;24.50;56.90
22290;DHT22;11313;50.116;8.424;2023-07-28T15:47:23;24.50;56.90
22290;DHT22;11313;50.116;8.424;2023-07-28T15:49:49;24.50;56.90